sensor_id;sensor_type;location;lat;lon;timestamp;P1;durP1;ratioP1;P2;durP2;ratioP2
33644;SDS011;19986;48.190;16.366;2024-01-06T00:00:26;61.63;;;57.22;;
33644;SDS011;19986;48.190;16.366;2024-01-06T00:02:52;60.92;;;56.72;;
33644;SDS011;19986;48.190;16.366;2024-01-06T00:05:18;59.42;;;55.08;;
33644;SDS011;19986;48.190;16.366;2024-01-06T00:07:44;58.40;;;54.30;;
33644;SDS011;19986;48.190;16.366;2024-01-06T00:10:10;59.47;;;55.17;;
33644;SDS011;19986;48.190;16.366;2024-01-06T00:12:37;60.47;;;56.08;;
33644;SDS011;19986;48.190;16.366;2024-01-06T00:15:03;63.65;;;59.20;;
33644;SDS011;19986;48.190;16.366;2024-01-06T00:17:29;59.65;;;55.38;;
33644;SDS011;19986;48.190;16.366;2024-01-06T00:19:55;63.75;;;59.05;;
33644;SDS011;19986;48.190;16.366;2024-01-06T00:22:21;60.20;;;55.55;;
33644;SDS011;19986;48.190;16.366;2024-01-06T00:24:47;61.35;;;56.75;;
33644;SDS011;19986;48.190;16.366;2024-01-06T00:27:15;63.03;;;58.80;;
33644;SDS011;19986;48.190;16.366;2024-01-06T00:29:41;61.45;;;57.05;;
33644;SDS011;19986;48.190;16.366;2024-01-06T00:32:09;62.67;;;58.17;;
33644;SDS011;19986;48.190;16.366;2024-01-06T00:34:35;63.08;;;58.72;;
33644;SDS011;19986;48.190;16.366;2024-01-06T00:37:05;60.22;;;55.88;;
33644;SDS011;19986;48.190;16.366;2024-01-06T00:39:31;62.88;;;58.10;;
33644;SDS011;19986;48.190;16.366;2024-01-06T00:41:57;63.80;;;59.20;;
33644;SDS011;19986;48.190;16.366;2024-01-06T00:44:23;62.42;;;57.83;;
33644;SDS011;19986;48.190;16.366;2024-01-06T00:46:54;62.20;;;57.80;;
33644;SDS011;19986;48.190;16.366;2024-01-06T00:49:20;63.75;;;59.25;;
33644;SDS011;19986;48.190;16.366;2024-01-06T00:51:49;63.85;;;59.33;;
33644;SDS011;19986;48.190;16.366;2024-01-06T00:54:16;60.67;;;56.30;;
33644;SDS011;19986;48.190;16.366;2024-01-06T00:56:42;60.83;;;56.58;;
33644;SDS011;19986;48.190;16.366;2024-01-06T00:59:08;60.75;;;56.45;;
33644;SDS011;19986;48.190;16.366;2024-01-06T01:01:35;63.97;;;59.53;;
33644;SDS011;19986;48.190;16.366;2024-01-06T01:04:01;62.55;;;57.95;;
33644;SDS011;19986;48.190;16.366;2024-01-06T01:06:27;62.03;;;57.13;;
33644;SDS011;19986;48.190;16.366;2024-01-06T01:08:53;61.88;;;57.30;;
33644;SDS011;19986;48.190;16.366;2024-01-06T01:11:19;64.97;;;60.33;;
33644;SDS011;19986;48.190;16.366;2024-01-06T01:13:45;64.93;;;60.30;;
33644;SDS011;19986;48.190;16.366;2024-01-06T01:16:11;65.53;;;60.42;;
33644;SDS011;19986;48.190;16.366;2024-01-06T01:18:37;63.25;;;58.72;;
33644;SDS011;19986;48.190;16.366;2024-01-06T01:21:03;63.90;;;59.00;;
33644;SDS011;19986;48.190;16.366;2024-01-06T01:23:29;66.05;;;61.15;;
33644;SDS011;19986;48.190;16.366;2024-01-06T01:25:55;64.63;;;59.47;;
33644;SDS011;19986;48.190;16.366;2024-01-06T01:28:21;63.25;;;58.55;;
33644;SDS011;19986;48.190;16.366;2024-01-06T01:30:49;65.47;;;60.63;;
33644;SDS011;19986;48.190;16.366;2024-01-06T01:33:22;63.20;;;58.50;;
33644;SDS011;19986;48.190;16.366;2024-01-06T01:35:52;64.22;;;59.53;;
33644;SDS011;19986;48.190;16.366;2024-01-06T01:38:26;63.15;;;58.47;;
33644;SDS011;19986;48.190;16.366;2024-01-06T01:40:53;66.47;;;61.67;;
33644;SDS011;19986;48.190;16.366;2024-01-06T01:43:20;64.80;;;60.20;;
33644;SDS011;19986;48.190;16.366;2024-01-06T01:45:50;64.35;;;59.47;;
33644;SDS011;19986;48.190;16.366;2024-01-06T01:48:22;63.58;;;58.95;;
33644;SDS011;19986;48.190;16.366;2024-01-06T01:50:50;64.88;;;60.10;;
33644;SDS011;19986;48.190;16.366;2024-01-06T01:53:17;63.85;;;59.10;;
33644;SDS011;19986;48.190;16.366;2024-01-06T01:55:45;62.10;;;57.45;;
33644;SDS011;19986;48.190;16.366;2024-01-06T01:58:13;64.40;;;59.58;;
33644;SDS011;19986;48.190;16.366;2024-01-06T02:00:42;64.68;;;59.95;;
33644;SDS011;19986;48.190;16.366;2024-01-06T02:03:09;67.20;;;62.28;;
33644;SDS011;19986;48.190;16.366;2024-01-06T02:05:36;67.75;;;62.53;;
33644;SDS011;19986;48.190;16.366;2024-01-06T02:08:03;67.97;;;62.72;;
33644;SDS011;19986;48.190;16.366;2024-01-06T02:10:31;67.55;;;62.25;;
33644;SDS011;19986;48.190;16.366;2024-01-06T02:13:06;68.30;;;63.17;;
33644;SDS011;19986;48.190;16.366;2024-01-06T02:15:39;67.88;;;62.55;;
33644;SDS011;19986;48.190;16.366;2024-01-06T02:18:06;66.97;;;61.83;;
33644;SDS011;19986;48.190;16.366;2024-01-06T02:20:33;69.10;;;64.13;;
33644;SDS011;19986;48.190;16.366;2024-01-06T02:23:00;70.82;;;65.40;;
33644;SDS011;19986;48.190;16.366;2024-01-06T02:25:26;71.25;;;65.70;;
33644;SDS011;19986;48.190;16.366;2024-01-06T02:27:52;68.18;;;62.80;;
33644;SDS011;19986;48.190;16.366;2024-01-06T02:30:19;68.95;;;63.45;;
33644;SDS011;19986;48.190;16.366;2024-01-06T02:32:45;69.13;;;63.92;;
33644;SDS011;19986;48.190;16.366;2024-01-06T02:35:11;68.35;;;63.17;;
33644;SDS011;19986;48.190;16.366;2024-01-06T02:37:38;68.90;;;63.67;;
33644;SDS011;19986;48.190;16.366;2024-01-06T02:40:05;67.28;;;62.22;;
33644;SDS011;19986;48.190;16.366;2024-01-06T02:42:31;68.20;;;63.08;;
33644;SDS011;19986;48.190;16.366;2024-01-06T02:44:57;70.07;;;64.60;;
33644;SDS011;19986;48.190;16.366;2024-01-06T02:47:24;68.10;;;62.90;;
33644;SDS011;19986;48.190;16.366;2024-01-06T02:49:51;68.40;;;63.35;;
33644;SDS011;19986;48.190;16.366;2024-01-06T02:52:17;68.38;;;63.42;;
33644;SDS011;19986;48.190;16.366;2024-01-06T02:54:44;69.10;;;63.88;;
33644;SDS011;19986;48.190;16.366;2024-01-06T02:57:10;67.15;;;62.17;;
33644;SDS011;19986;48.190;16.366;2024-01-06T02:59:38;69.68;;;64.47;;
33644;SDS011;19986;48.190;16.366;2024-01-06T03:02:05;69.95;;;64.65;;
33644;SDS011;19986;48.190;16.366;2024-01-06T03:04:32;69.47;;;64.00;;
33644;SDS011;19986;48.190;16.366;2024-01-06T03:06:58;70.43;;;64.82;;
33644;SDS011;19986;48.190;16.366;2024-01-06T03:09:25;67.05;;;61.88;;
33644;SDS011;19986;48.190;16.366;2024-01-06T03:11:52;68.53;;;63.30;;
33644;SDS011;19986;48.190;16.366;2024-01-06T03:14:18;69.70;;;64.30;;
33644;SDS011;19986;48.190;16.366;2024-01-06T03:16:44;68.95;;;63.58;;
33644;SDS011;19986;48.190;16.366;2024-01-06T03:19:10;68.32;;;63.15;;
33644;SDS011;19986;48.190;16.366;2024-01-06T03:21:36;68.65;;;63.15;;
33644;SDS011;19986;48.190;16.366;2024-01-06T03:24:03;71.25;;;65.75;;
33644;SDS011;19986;48.190;16.366;2024-01-06T03:26:29;70.43;;;64.82;;
33644;SDS011;19986;48.190;16.366;2024-01-06T03:28:56;69.15;;;63.95;;
33644;SDS011;19986;48.190;16.366;2024-01-06T03:31:24;70.13;;;64.30;;
33644;SDS011;19986;48.190;16.366;2024-01-06T03:33:50;69.28;;;63.80;;
33644;SDS011;19986;48.190;16.366;2024-01-06T03:36:20;68.68;;;63.30;;
33644;SDS011;19986;48.190;16.366;2024-01-06T03:38:45;69.00;;;63.90;;
33644;SDS011;19986;48.190;16.366;2024-01-06T03:41:11;68.97;;;63.28;;
33644;SDS011;19986;48.190;16.366;2024-01-06T03:43:37;69.10;;;63.83;;
33644;SDS011;19986;48.190;16.366;2024-01-06T03:46:04;70.65;;;65.03;;
33644;SDS011;19986;48.190;16.366;2024-01-06T03:48:30;70.30;;;64.72;;
33644;SDS011;19986;48.190;16.366;2024-01-06T03:50:58;68.50;;;63.20;;
33644;SDS011;19986;48.190;16.366;2024-01-06T03:53:24;69.88;;;64.05;;
33644;SDS011;19986;48.190;16.366;2024-01-06T03:55:50;69.20;;;63.80;;
33644;SDS011;19986;48.190;16.366;2024-01-06T03:58:17;70.32;;;64.88;;
33644;SDS011;19986;48.190;16.366;2024-01-06T04:00:43;69.28;;;63.95;;
33644;SDS011;19986;48.190;16.366;2024-01-06T04:03:09;69.65;;;64.22;;
33644;SDS011;19986;48.190;16.366;2024-01-06T04:05:35;68.03;;;63.00;;
33644;SDS011;19986;48.190;16.366;2024-01-06T04:08:01;69.53;;;64.03;;
33644;SDS011;19986;48.190;16.366;2024-01-06T04:10:26;71.97;;;66.22;;
33644;SDS011;19986;48.190;16.366;2024-01-06T04:12:52;69.13;;;63.95;;
33644;SDS011;19986;48.190;16.366;2024-01-06T04:15:20;71.95;;;66.50;;
33644;SDS011;19986;48.190;16.366;2024-01-06T04:17:48;71.53;;;65.93;;
33644;SDS011;19986;48.190;16.366;2024-01-06T04:20:14;67.75;;;62.47;;
33644;SDS011;19986;48.190;16.366;2024-01-06T04:22:40;71.57;;;66.20;;
33644;SDS011;19986;48.190;16.366;2024-01-06T04:25:06;68.47;;;63.47;;
33644;SDS011;19986;48.190;16.366;2024-01-06T04:27:32;68.45;;;63.38;;
33644;SDS011;19986;48.190;16.366;2024-01-06T04:30:00;72.82;;;67.45;;
33644;SDS011;19986;48.190;16.366;2024-01-06T04:32:25;71.43;;;66.05;;
33644;SDS011;19986;48.190;16.366;2024-01-06T04:34:51;70.45;;;65.15;;
33644;SDS011;19986;48.190;16.366;2024-01-06T04:37:18;68.85;;;63.38;;
33644;SDS011;19986;48.190;16.366;2024-01-06T04:39:45;69.57;;;64.38;;
33644;SDS011;19986;48.190;16.366;2024-01-06T04:42:11;69.50;;;64.30;;
33644;SDS011;19986;48.190;16.366;2024-01-06T04:44:37;70.20;;;65.03;;
33644;SDS011;19986;48.190;16.366;2024-01-06T04:47:03;70.70;;;65.28;;
33644;SDS011;19986;48.190;16.366;2024-01-06T04:49:29;70.68;;;65.28;;
33644;SDS011;19986;48.190;16.366;2024-01-06T04:52:03;66.75;;;61.55;;
33644;SDS011;19986;48.190;16.366;2024-01-06T04:54:29;68.95;;;63.33;;
33644;SDS011;19986;48.190;16.366;2024-01-06T04:56:55;68.25;;;63.05;;
33644;SDS011;19986;48.190;16.366;2024-01-06T04:59:21;69.10;;;63.75;;
33644;SDS011;19986;48.190;16.366;2024-01-06T05:01:51;71.20;;;65.93;;
33644;SDS011;19986;48.190;16.366;2024-01-06T05:04:18;66.63;;;61.67;;
33644;SDS011;19986;48.190;16.366;2024-01-06T05:06:44;66.88;;;61.92;;
33644;SDS011;19986;48.190;16.366;2024-01-06T05:09:10;69.95;;;64.40;;
33644;SDS011;19986;48.190;16.366;2024-01-06T05:11:36;65.10;;;60.30;;
33644;SDS011;19986;48.190;16.366;2024-01-06T05:14:02;70.07;;;64.80;;
33644;SDS011;19986;48.190;16.366;2024-01-06T05:16:28;70.30;;;65.22;;
33644;SDS011;19986;48.190;16.366;2024-01-06T05:18:55;69.75;;;64.68;;
33644;SDS011;19986;48.190;16.366;2024-01-06T05:21:21;64.80;;;59.95;;
33644;SDS011;19986;48.190;16.366;2024-01-06T05:23:47;67.57;;;62.85;;
33644;SDS011;19986;48.190;16.366;2024-01-06T05:26:13;65.88;;;60.85;;
33644;SDS011;19986;48.190;16.366;2024-01-06T05:28:39;68.32;;;63.45;;
33644;SDS011;19986;48.190;16.366;2024-01-06T05:31:05;69.00;;;63.92;;
33644;SDS011;19986;48.190;16.366;2024-01-06T05:33:31;70.05;;;64.90;;
33644;SDS011;19986;48.190;16.366;2024-01-06T05:36:12;68.70;;;63.15;;
33644;SDS011;19986;48.190;16.366;2024-01-06T05:38:38;69.00;;;63.95;;
33644;SDS011;19986;48.190;16.366;2024-01-06T05:41:04;68.05;;;63.00;;
33644;SDS011;19986;48.190;16.366;2024-01-06T05:43:31;69.05;;;64.00;;
33644;SDS011;19986;48.190;16.366;2024-01-06T05:45:58;67.43;;;62.45;;
33644;SDS011;19986;48.190;16.366;2024-01-06T05:48:24;69.22;;;64.13;;
33644;SDS011;19986;48.190;16.366;2024-01-06T05:50:50;69.18;;;64.18;;
33644;SDS011;19986;48.190;16.366;2024-01-06T05:53:16;67.05;;;62.08;;
33644;SDS011;19986;48.190;16.366;2024-01-06T05:55:43;70.00;;;64.90;;
33644;SDS011;19986;48.190;16.366;2024-01-06T05:58:09;71.30;;;66.10;;
33644;SDS011;19986;48.190;16.366;2024-01-06T06:00:35;67.10;;;62.30;;
33644;SDS011;19986;48.190;16.366;2024-01-06T06:03:02;68.03;;;63.10;;
33644;SDS011;19986;48.190;16.366;2024-01-06T06:05:28;66.57;;;61.78;;
33644;SDS011;19986;48.190;16.366;2024-01-06T06:07:54;65.75;;;60.85;;
33644;SDS011;19986;48.190;16.366;2024-01-06T06:10:20;66.88;;;62.22;;
33644;SDS011;19986;48.190;16.366;2024-01-06T06:12:47;66.75;;;61.70;;
33644;SDS011;19986;48.190;16.366;2024-01-06T06:15:28;67.43;;;62.70;;
33644;SDS011;19986;48.190;16.366;2024-01-06T06:17:54;70.40;;;65.20;;
33644;SDS011;19986;48.190;16.366;2024-01-06T06:20:21;68.70;;;63.80;;
33644;SDS011;19986;48.190;16.366;2024-01-06T06:22:47;67.72;;;62.95;;
33644;SDS011;19986;48.190;16.366;2024-01-06T06:25:16;67.15;;;62.10;;
33644;SDS011;19986;48.190;16.366;2024-01-06T06:27:42;70.22;;;64.88;;
33644;SDS011;19986;48.190;16.366;2024-01-06T06:30:08;70.47;;;65.45;;
33644;SDS011;19986;48.190;16.366;2024-01-06T06:32:34;66.88;;;61.95;;
33644;SDS011;19986;48.190;16.366;2024-01-06T06:35:15;68.53;;;63.55;;
33644;SDS011;19986;48.190;16.366;2024-01-06T06:37:41;65.47;;;60.78;;
33644;SDS011;19986;48.190;16.366;2024-01-06T06:40:07;69.97;;;65.03;;
33644;SDS011;19986;48.190;16.366;2024-01-06T06:42:34;65.70;;;61.10;;
33644;SDS011;19986;48.190;16.366;2024-01-06T06:45:00;67.78;;;62.78;;
33644;SDS011;19986;48.190;16.366;2024-01-06T06:47:25;68.47;;;63.63;;
33644;SDS011;19986;48.190;16.366;2024-01-06T06:49:51;65.35;;;60.80;;
33644;SDS011;19986;48.190;16.366;2024-01-06T06:52:17;66.10;;;61.30;;
33644;SDS011;19986;48.190;16.366;2024-01-06T06:54:43;66.60;;;61.70;;
33644;SDS011;19986;48.190;16.366;2024-01-06T06:57:09;67.07;;;62.22;;
33644;SDS011;19986;48.190;16.366;2024-01-06T06:59:35;68.45;;;63.55;;
33644;SDS011;19986;48.190;16.366;2024-01-06T07:02:01;65.43;;;60.63;;
33644;SDS011;19986;48.190;16.366;2024-01-06T07:04:27;66.65;;;61.70;;
33644;SDS011;19986;48.190;16.366;2024-01-06T07:06:53;70.78;;;65.78;;
33644;SDS011;19986;48.190;16.366;2024-01-06T07:09:19;67.80;;;62.78;;
33644;SDS011;19986;48.190;16.366;2024-01-06T07:11:48;68.90;;;63.97;;
33644;SDS011;19986;48.190;16.366;2024-01-06T07:14:14;67.85;;;62.97;;
33644;SDS011;19986;48.190;16.366;2024-01-06T07:16:40;67.55;;;62.65;;
33644;SDS011;19986;48.190;16.366;2024-01-06T07:19:06;67.28;;;62.40;;
33644;SDS011;19986;48.190;16.366;2024-01-06T07:21:32;67.82;;;62.95;;
33644;SDS011;19986;48.190;16.366;2024-01-06T07:23:58;68.40;;;63.30;;
33644;SDS011;19986;48.190;16.366;2024-01-06T07:26:24;65.45;;;60.55;;
33644;SDS011;19986;48.190;16.366;2024-01-06T07:28:50;67.78;;;62.80;;
33644;SDS011;19986;48.190;16.366;2024-01-06T07:31:16;66.90;;;62.22;;
33644;SDS011;19986;48.190;16.366;2024-01-06T07:33:42;66.78;;;61.70;;
33644;SDS011;19986;48.190;16.366;2024-01-06T07:36:08;68.18;;;63.00;;
33644;SDS011;19986;48.190;16.366;2024-01-06T07:38:34;70.47;;;65.22;;
33644;SDS011;19986;48.190;16.366;2024-01-06T07:41:00;67.07;;;62.08;;
33644;SDS011;19986;48.190;16.366;2024-01-06T07:43:26;68.93;;;64.03;;
33644;SDS011;19986;48.190;16.366;2024-01-06T07:46:07;68.95;;;63.88;;
33644;SDS011;19986;48.190;16.366;2024-01-06T07:48:35;69.05;;;64.03;;
33644;SDS011;19986;48.190;16.366;2024-01-06T07:51:02;71.20;;;66.00;;
33644;SDS011;19986;48.190;16.366;2024-01-06T07:53:30;71.65;;;66.22;;
33644;SDS011;19986;48.190;16.366;2024-01-06T07:55:56;70.00;;;64.78;;
33644;SDS011;19986;48.190;16.366;2024-01-06T07:58:22;69.63;;;64.40;;
33644;SDS011;19986;48.190;16.366;2024-01-06T08:00:48;73.32;;;68.07;;
33644;SDS011;19986;48.190;16.366;2024-01-06T08:03:14;72.57;;;66.82;;
33644;SDS011;19986;48.190;16.366;2024-01-06T08:05:41;67.85;;;62.92;;
33644;SDS011;19986;48.190;16.366;2024-01-06T08:08:07;71.43;;;66.30;;
33644;SDS011;19986;48.190;16.366;2024-01-06T08:10:33;68.10;;;63.17;;
33644;SDS011;19986;48.190;16.366;2024-01-06T08:12:59;69.47;;;64.50;;
33644;SDS011;19986;48.190;16.366;2024-01-06T08:15:25;65.85;;;61.03;;
33644;SDS011;19986;48.190;16.366;2024-01-06T08:17:51;66.82;;;61.92;;
33644;SDS011;19986;48.190;16.366;2024-01-06T08:20:18;66.05;;;61.42;;
33644;SDS011;19986;48.190;16.366;2024-01-06T08:22:44;66.20;;;61.50;;
33644;SDS011;19986;48.190;16.366;2024-01-06T08:25:10;64.85;;;60.38;;
33644;SDS011;19986;48.190;16.366;2024-01-06T08:27:36;62.13;;;57.92;;
33644;SDS011;19986;48.190;16.366;2024-01-06T08:30:02;63.83;;;59.63;;
33644;SDS011;19986;48.190;16.366;2024-01-06T08:32:29;61.30;;;57.38;;
33644;SDS011;19986;48.190;16.366;2024-01-06T08:34:55;62.88;;;58.67;;
33644;SDS011;19986;48.190;16.366;2024-01-06T08:37:21;61.53;;;57.33;;
33644;SDS011;19986;48.190;16.366;2024-01-06T08:39:47;61.65;;;57.63;;
33644;SDS011;19986;48.190;16.366;2024-01-06T08:42:13;62.38;;;58.38;;
33644;SDS011;19986;48.190;16.366;2024-01-06T08:44:39;62.10;;;58.13;;
33644;SDS011;19986;48.190;16.366;2024-01-06T08:47:05;60.75;;;56.80;;
33644;SDS011;19986;48.190;16.366;2024-01-06T08:49:31;59.47;;;55.58;;
33644;SDS011;19986;48.190;16.366;2024-01-06T08:51:57;58.45;;;54.85;;
33644;SDS011;19986;48.190;16.366;2024-01-06T08:54:23;60.40;;;56.55;;
33644;SDS011;19986;48.190;16.366;2024-01-06T08:56:49;59.78;;;56.13;;
33644;SDS011;19986;48.190;16.366;2024-01-06T08:59:15;56.03;;;52.50;;
33644;SDS011;19986;48.190;16.366;2024-01-06T09:01:41;58.10;;;54.50;;
33644;SDS011;19986;48.190;16.366;2024-01-06T09:04:07;59.20;;;55.60;;
33644;SDS011;19986;48.190;16.366;2024-01-06T09:06:51;58.80;;;55.22;;
33644;SDS011;19986;48.190;16.366;2024-01-06T09:09:18;55.47;;;51.97;;
33644;SDS011;19986;48.190;16.366;2024-01-06T09:11:46;55.55;;;52.03;;
33644;SDS011;19986;48.190;16.366;2024-01-06T09:14:12;57.15;;;53.75;;
33644;SDS011;19986;48.190;16.366;2024-01-06T09:16:38;54.58;;;51.17;;
33644;SDS011;19986;48.190;16.366;2024-01-06T09:19:09;56.85;;;53.50;;
33644;SDS011;19986;48.190;16.366;2024-01-06T09:21:35;55.00;;;51.80;;
33644;SDS011;19986;48.190;16.366;2024-01-06T09:24:02;54.92;;;51.63;;
33644;SDS011;19986;48.190;16.366;2024-01-06T09:26:31;55.13;;;52.08;;
33644;SDS011;19986;48.190;16.366;2024-01-06T09:28:59;52.83;;;49.88;;
33644;SDS011;19986;48.190;16.366;2024-01-06T09:31:26;53.00;;;49.97;;
33644;SDS011;19986;48.190;16.366;2024-01-06T09:33:52;54.15;;;51.05;;
33644;SDS011;19986;48.190;16.366;2024-01-06T09:36:18;56.30;;;53.13;;
33644;SDS011;19986;48.190;16.366;2024-01-06T09:38:44;50.00;;;46.95;;
33644;SDS011;19986;48.190;16.366;2024-01-06T09:41:10;56.55;;;53.25;;
33644;SDS011;19986;48.190;16.366;2024-01-06T09:43:36;54.35;;;51.35;;
33644;SDS011;19986;48.190;16.366;2024-01-06T09:46:08;54.00;;;50.83;;
33644;SDS011;19986;48.190;16.366;2024-01-06T09:48:40;51.40;;;48.60;;
33644;SDS011;19986;48.190;16.366;2024-01-06T09:51:09;50.13;;;47.50;;
33644;SDS011;19986;48.190;16.366;2024-01-06T09:53:38;52.10;;;49.28;;
33644;SDS011;19986;48.190;16.366;2024-01-06T09:56:14;50.72;;;47.92;;
33644;SDS011;19986;48.190;16.366;2024-01-06T09:58:41;48.25;;;45.65;;
33644;SDS011;19986;48.190;16.366;2024-01-06T10:01:09;51.80;;;49.05;;
33644;SDS011;19986;48.190;16.366;2024-01-06T10:03:37;52.25;;;49.55;;
33644;SDS011;19986;48.190;16.366;2024-01-06T10:06:04;49.90;;;47.20;;
33644;SDS011;19986;48.190;16.366;2024-01-06T10:08:30;51.35;;;48.70;;
33644;SDS011;19986;48.190;16.366;2024-01-06T10:11:00;50.67;;;48.08;;
33644;SDS011;19986;48.190;16.366;2024-01-06T10:13:27;52.65;;;49.85;;
33644;SDS011;19986;48.190;16.366;2024-01-06T10:15:54;51.75;;;49.08;;
33644;SDS011;19986;48.190;16.366;2024-01-06T10:18:20;51.83;;;49.03;;
33644;SDS011;19986;48.190;16.366;2024-01-06T10:20:46;49.22;;;46.60;;
33644;SDS011;19986;48.190;16.366;2024-01-06T10:23:12;49.40;;;46.80;;
33644;SDS011;19986;48.190;16.366;2024-01-06T10:25:54;49.78;;;47.17;;
33644;SDS011;19986;48.190;16.366;2024-01-06T10:28:20;51.08;;;48.17;;
33644;SDS011;19986;48.190;16.366;2024-01-06T10:30:49;52.95;;;49.92;;
33644;SDS011;19986;48.190;16.366;2024-01-06T10:33:21;51.65;;;48.95;;
33644;SDS011;19986;48.190;16.366;2024-01-06T10:35:48;53.22;;;50.30;;
33644;SDS011;19986;48.190;16.366;2024-01-06T10:38:15;52.42;;;49.55;;
33644;SDS011;19986;48.190;16.366;2024-01-06T10:40:57;54.05;;;51.10;;
33644;SDS011;19986;48.190;16.366;2024-01-06T10:43:32;54.03;;;51.10;;
33644;SDS011;19986;48.190;16.366;2024-01-06T10:46:07;53.72;;;50.63;;
33644;SDS011;19986;48.190;16.366;2024-01-06T10:48:36;54.22;;;51.13;;
33644;SDS011;19986;48.190;16.366;2024-01-06T10:51:11;54.22;;;51.13;;
33644;SDS011;19986;48.190;16.366;2024-01-06T10:53:42;54.95;;;51.72;;
33644;SDS011;19986;48.190;16.366;2024-01-06T10:56:09;56.42;;;53.13;;
33644;SDS011;19986;48.190;16.366;2024-01-06T10:58:45;53.58;;;50.50;;
33644;SDS011;19986;48.190;16.366;2024-01-06T11:01:13;54.97;;;51.67;;
33644;SDS011;19986;48.190;16.366;2024-01-06T11:03:39;58.13;;;54.83;;
33644;SDS011;19986;48.190;16.366;2024-01-06T11:06:08;55.72;;;52.53;;
33644;SDS011;19986;48.190;16.366;2024-01-06T11:08:40;54.33;;;50.92;;
33644;SDS011;19986;48.190;16.366;2024-01-06T11:11:16;53.75;;;50.40;;
33644;SDS011;19986;48.190;16.366;2024-01-06T11:13:43;58.72;;;54.70;;
33644;SDS011;19986;48.190;16.366;2024-01-06T11:19:02;57.13;;;53.42;;
33644;SDS011;19986;48.190;16.366;2024-01-06T11:21:34;56.42;;;52.65;;
33644;SDS011;19986;48.190;16.366;2024-01-06T11:26:34;54.75;;;51.15;;
33644;SDS011;19986;48.190;16.366;2024-01-06T11:29:04;55.58;;;52.28;;
33644;SDS011;19986;48.190;16.366;2024-01-06T11:31:30;57.03;;;53.63;;
33644;SDS011;19986;48.190;16.366;2024-01-06T11:33:57;57.95;;;54.17;;
33644;SDS011;19986;48.190;16.366;2024-01-06T11:36:38;57.58;;;53.85;;
33644;SDS011;19986;48.190;16.366;2024-01-06T11:39:05;56.90;;;53.33;;
33644;SDS011;19986;48.190;16.366;2024-01-06T11:44:22;55.83;;;52.33;;
33644;SDS011;19986;48.190;16.366;2024-01-06T11:46:49;57.05;;;53.42;;
33644;SDS011;19986;48.190;16.366;2024-01-06T11:49:15;56.05;;;52.55;;
33644;SDS011;19986;48.190;16.366;2024-01-06T11:51:41;55.90;;;52.55;;
33644;SDS011;19986;48.190;16.366;2024-01-06T11:54:08;54.85;;;51.63;;
33644;SDS011;19986;48.190;16.366;2024-01-06T11:56:35;56.60;;;53.00;;
33644;SDS011;19986;48.190;16.366;2024-01-06T11:59:00;55.67;;;52.28;;
33644;SDS011;19986;48.190;16.366;2024-01-06T12:01:26;56.53;;;53.03;;
33644;SDS011;19986;48.190;16.366;2024-01-06T12:03:53;58.15;;;54.65;;
33644;SDS011;19986;48.190;16.366;2024-01-06T12:06:20;56.53;;;53.22;;
33644;SDS011;19986;48.190;16.366;2024-01-06T12:08:49;52.65;;;49.47;;
33644;SDS011;19986;48.190;16.366;2024-01-06T12:11:17;56.70;;;53.33;;
33644;SDS011;19986;48.190;16.366;2024-01-06T12:13:44;51.95;;;48.78;;
33644;SDS011;19986;48.190;16.366;2024-01-06T12:16:10;56.38;;;53.08;;
33644;SDS011;19986;48.190;16.366;2024-01-06T12:18:35;54.03;;;50.95;;
33644;SDS011;19986;48.190;16.366;2024-01-06T12:21:02;53.05;;;49.95;;
33644;SDS011;19986;48.190;16.366;2024-01-06T12:23:28;56.13;;;52.75;;
33644;SDS011;19986;48.190;16.366;2024-01-06T12:25:57;54.85;;;51.65;;
33644;SDS011;19986;48.190;16.366;2024-01-06T12:28:26;59.70;;;56.20;;
33644;SDS011;19986;48.190;16.366;2024-01-06T12:30:53;56.60;;;53.30;;
33644;SDS011;19986;48.190;16.366;2024-01-06T12:33:19;55.67;;;52.47;;
33644;SDS011;19986;48.190;16.366;2024-01-06T12:35:45;55.90;;;52.60;;
33644;SDS011;19986;48.190;16.366;2024-01-06T12:38:12;52.72;;;49.63;;
33644;SDS011;19986;48.190;16.366;2024-01-06T12:40:38;52.33;;;49.33;;
33644;SDS011;19986;48.190;16.366;2024-01-06T12:43:04;55.78;;;52.58;;
33644;SDS011;19986;48.190;16.366;2024-01-06T12:45:30;53.08;;;50.00;;
33644;SDS011;19986;48.190;16.366;2024-01-06T12:48:11;55.65;;;52.45;;
33644;SDS011;19986;48.190;16.366;2024-01-06T12:50:38;53.83;;;50.72;;
33644;SDS011;19986;48.190;16.366;2024-01-06T12:53:04;53.83;;;50.75;;
33644;SDS011;19986;48.190;16.366;2024-01-06T12:55:30;55.72;;;52.33;;
33644;SDS011;19986;48.190;16.366;2024-01-06T12:57:56;54.80;;;51.70;;
33644;SDS011;19986;48.190;16.366;2024-01-06T13:00:26;53.25;;;50.25;;
33644;SDS011;19986;48.190;16.366;2024-01-06T13:02:51;55.03;;;51.92;;
33644;SDS011;19986;48.190;16.366;2024-01-06T13:05:17;52.97;;;50.03;;
33644;SDS011;19986;48.190;16.366;2024-01-06T13:07:45;60.22;;;56.83;;
33644;SDS011;19986;48.190;16.366;2024-01-06T13:10:15;52.90;;;49.70;;
33644;SDS011;19986;48.190;16.366;2024-01-06T13:12:41;54.20;;;51.13;;
33644;SDS011;19986;48.190;16.366;2024-01-06T13:15:07;54.95;;;51.83;;
33644;SDS011;19986;48.190;16.366;2024-01-06T13:17:36;54.90;;;51.83;;
33644;SDS011;19986;48.190;16.366;2024-01-06T13:20:24;56.72;;;53.53;;
33644;SDS011;19986;48.190;16.366;2024-01-06T13:22:49;54.33;;;51.22;;
33644;SDS011;19986;48.190;16.366;2024-01-06T13:25:17;51.80;;;48.88;;
33644;SDS011;19986;48.190;16.366;2024-01-06T13:27:47;56.10;;;53.10;;
33644;SDS011;19986;48.190;16.366;2024-01-06T13:30:13;54.65;;;51.45;;
33644;SDS011;19986;48.190;16.366;2024-01-06T13:32:40;51.90;;;48.90;;
33644;SDS011;19986;48.190;16.366;2024-01-06T13:35:06;53.40;;;50.33;;
33644;SDS011;19986;48.190;16.366;2024-01-06T13:37:34;53.78;;;50.58;;
33644;SDS011;19986;48.190;16.366;2024-01-06T13:40:00;50.85;;;47.95;;
33644;SDS011;19986;48.190;16.366;2024-01-06T13:42:26;53.28;;;50.25;;
33644;SDS011;19986;48.190;16.366;2024-01-06T13:44:52;51.58;;;48.58;;
33644;SDS011;19986;48.190;16.366;2024-01-06T13:47:18;52.22;;;49.30;;
33644;SDS011;19986;48.190;16.366;2024-01-06T13:49:44;52.22;;;49.28;;
33644;SDS011;19986;48.190;16.366;2024-01-06T13:52:11;52.10;;;49.13;;
33644;SDS011;19986;48.190;16.366;2024-01-06T13:54:40;54.38;;;51.30;;
33644;SDS011;19986;48.190;16.366;2024-01-06T13:57:08;54.05;;;51.00;;
33644;SDS011;19986;48.190;16.366;2024-01-06T13:59:35;53.38;;;50.20;;
33644;SDS011;19986;48.190;16.366;2024-01-06T14:02:04;53.00;;;49.92;;
33644;SDS011;19986;48.190;16.366;2024-01-06T14:04:32;53.25;;;50.25;;
33644;SDS011;19986;48.190;16.366;2024-01-06T14:06:58;55.15;;;52.08;;
33644;SDS011;19986;48.190;16.366;2024-01-06T14:09:29;54.63;;;51.60;;
33644;SDS011;19986;48.190;16.366;2024-01-06T14:11:55;53.67;;;50.58;;
33644;SDS011;19986;48.190;16.366;2024-01-06T14:14:21;54.50;;;51.40;;
33644;SDS011;19986;48.190;16.366;2024-01-06T14:16:47;54.63;;;51.50;;